createdAt,value
2018-08-18T00:00:10.240Z,1014.05
2018-08-18T00:01:10.117Z,1014.10
2018-08-18T00:02:10.262Z,1014.08
2018-08-18T00:03:10.068Z,1014.05
2018-08-18T00:04:58.889Z,1014.06
2018-08-18T00:05:58.838Z,1014.07
2018-08-18T00:06:58.822Z,1014.12
2018-08-18T00:07:58.785Z,1014.08
2018-08-18T00:08:58.809Z,1014.11
2018-08-18T00:09:58.785Z,1014.13
2018-08-18T00:10:58.722Z,1014.13
2018-08-18T00:11:58.782Z,1014.08
2018-08-18T00:12:58.664Z,1014.09
2018-08-18T00:13:58.685Z,1014.04
2018-08-18T00:14:58.625Z,1014.07
2018-08-18T00:15:58.707Z,1014.08
2018-08-18T00:16:58.601Z,1014.10
2018-08-18T00:17:58.610Z,1014.10
2018-08-18T00:18:58.520Z,1014.10
2018-08-18T00:19:58.527Z,1014.14
2018-08-18T00:20:58.473Z,1014.14
2018-08-18T00:21:58.548Z,1014.11
2018-08-18T00:22:58.422Z,1014.13
2018-08-18T00:23:58.406Z,1014.15
2018-08-18T00:24:58.374Z,1014.12
2018-08-18T00:25:58.458Z,1014.14
2018-08-18T00:26:58.329Z,1014.12
2018-08-18T00:27:58.477Z,1014.14
2018-08-18T00:28:58.288Z,1014.13
2018-08-18T00:29:58.292Z,1014.16
2018-08-18T00:30:58.227Z,1014.14
2018-08-18T00:31:58.328Z,1014.16
2018-08-18T00:32:58.204Z,1014.12
2018-08-18T00:33:58.210Z,1014.13
2018-08-18T00:34:58.145Z,1014.13
2018-08-18T00:35:58.209Z,1014.12
2018-08-18T00:36:58.091Z,1014.09
2018-08-18T00:37:58.127Z,1014.05
2018-08-18T00:38:58.040Z,1014.08
2018-08-18T00:39:58.037Z,1014.06
2018-08-18T00:40:58.101Z,1014.07
2018-08-18T00:41:58.050Z,1014.05
2018-08-18T00:42:57.944Z,1014.08
2018-08-18T00:43:57.963Z,1014.02
2018-08-18T00:44:57.902Z,1014.05
2018-08-18T00:45:59.919Z,1014.08
2018-08-18T00:46:57.859Z,1014.02
2018-08-18T00:47:57.885Z,1014.06
2018-08-18T00:48:57.804Z,1014.06
2018-08-18T00:49:57.891Z,1014.08
2018-08-18T00:50:57.750Z,1014.09
2018-08-18T00:51:57.743Z,1014.10
2018-08-18T00:52:57.812Z,1014.07
2018-08-18T00:53:57.681Z,1014.10
2018-08-18T00:54:57.759Z,1014.11
2018-08-18T00:55:57.631Z,1014.08
2018-08-18T00:56:57.641Z,1014.09
2018-08-18T00:57:57.602Z,1014.13
2018-08-18T00:58:57.651Z,1014.09
2018-08-18T00:59:57.532Z,1014.12
2018-08-18T01:00:57.577Z,1014.09
2018-08-18T01:01:57.501Z,1014.12
2018-08-18T01:02:57.623Z,1014.14
2018-08-18T01:03:57.479Z,1014.17
2018-08-18T01:04:57.482Z,1014.15
2018-08-18T01:05:57.393Z,1014.15
2018-08-18T01:06:57.499Z,1014.15
2018-08-18T01:07:57.362Z,1014.19
2018-08-18T01:08:57.418Z,1014.16
2018-08-18T01:09:57.299Z,1014.20
2018-08-18T01:10:57.345Z,1014.21
2018-08-18T01:11:57.344Z,1014.24
2018-08-18T01:12:57.419Z,1014.24
2018-08-18T01:13:57.254Z,1014.23
2018-08-18T01:14:57.426Z,1014.24
2018-08-18T01:15:57.152Z,1014.27
2018-08-18T01:16:57.132Z,1014.29
2018-08-18T01:17:57.176Z,1014.25
2018-08-18T01:18:57.084Z,1014.24
2018-08-18T01:19:57.211Z,1014.23
2018-08-18T01:20:57.037Z,1014.21
2018-08-18T01:21:57.110Z,1014.26
2018-08-18T01:22:56.997Z,1014.21
2018-08-18T01:23:57.022Z,1014.26
2018-08-18T01:24:56.959Z,1014.25
2018-08-18T01:25:57.006Z,1014.25
2018-08-18T01:26:56.952Z,1014.31
2018-08-18T01:27:56.933Z,1014.26
2018-08-18T01:28:56.871Z,1014.27
2018-08-18T01:29:56.939Z,1014.30
2018-08-18T01:30:56.806Z,1014.28
2018-08-18T01:31:56.835Z,1014.28
2018-08-18T01:32:56.743Z,1014.25
2018-08-18T01:33:56.754Z,1014.27
2018-08-18T01:34:56.701Z,1014.26
2018-08-18T01:35:56.752Z,1014.28
2018-08-18T01:36:56.653Z,1014.27
2018-08-18T01:37:56.693Z,1014.27
2018-08-18T01:38:56.606Z,1014.27
2018-08-18T01:39:56.685Z,1014.26
2018-08-18T01:40:56.591Z,1014.29
2018-08-18T01:42:42.584Z,1014.32
2018-08-18T01:43:42.558Z,1014.33
2018-08-18T01:44:42.589Z,1014.33
2018-08-18T01:45:42.466Z,1014.33
2018-08-18T01:46:42.508Z,1014.30
2018-08-18T01:47:42.417Z,1014.30
2018-08-18T01:48:42.515Z,1014.33
2018-08-18T01:49:42.388Z,1014.31
2018-08-18T01:50:42.431Z,1014.36
2018-08-18T01:51:42.340Z,1014.39
2018-08-18T01:52:42.334Z,1014.35
2018-08-18T01:53:42.267Z,1014.37
2018-08-18T01:54:42.340Z,1014.34
2018-08-18T01:55:42.226Z,1014.35
2018-08-18T01:56:42.254Z,1014.33
2018-08-18T01:57:42.175Z,1014.33
2018-08-18T01:58:42.166Z,1014.31
2018-08-18T01:59:42.132Z,1014.35
2018-08-18T02:00:42.186Z,1014.29
2018-08-18T02:01:42.078Z,1014.32
2018-08-18T02:02:42.093Z,1014.34
2018-08-18T02:03:42.040Z,1014.32
2018-08-18T02:04:42.103Z,1014.30
2018-08-18T02:05:41.982Z,1014.29
2018-08-18T02:06:42.025Z,1014.30
2018-08-18T02:07:41.930Z,1014.23
2018-08-18T02:08:41.919Z,1014.22
2018-08-18T02:09:41.892Z,1014.25
2018-08-18T02:10:41.930Z,1014.23
2018-08-18T02:11:41.835Z,1014.21
2018-08-18T02:12:41.897Z,1014.23
2018-08-18T02:13:41.802Z,1014.25
2018-08-18T02:14:41.873Z,1014.27
2018-08-18T02:15:41.731Z,1014.29
2018-08-18T02:16:41.785Z,1014.31
2018-08-18T02:17:41.694Z,1014.31
2018-08-18T02:18:41.689Z,1014.33
2018-08-18T02:19:41.639Z,1014.30
2018-08-18T02:20:41.696Z,1014.31
2018-08-18T02:21:41.590Z,1014.30
2018-08-18T02:22:41.599Z,1014.30
2018-08-18T02:23:41.542Z,1014.29
2018-08-18T02:24:41.623Z,1014.36
2018-08-18T02:25:41.483Z,1014.29
2018-08-18T02:26:41.524Z,1014.29
2018-08-18T02:27:41.442Z,1014.24
2018-08-18T02:28:41.434Z,1014.24
2018-08-18T02:29:41.388Z,1014.23
2018-08-18T02:30:41.448Z,1014.20
2018-08-18T02:31:41.352Z,1014.17
2018-08-18T02:32:41.355Z,1014.16
2018-08-18T02:33:41.307Z,1014.10
2018-08-18T02:34:41.374Z,1014.09
2018-08-18T02:35:41.249Z,1014.11
2018-08-18T02:36:41.280Z,1014.06
2018-08-18T02:37:41.223Z,1014.13
2018-08-18T02:38:41.195Z,1014.16
2018-08-18T02:39:41.142Z,1014.33
2018-08-18T02:40:41.142Z,1014.35
2018-08-18T02:41:41.104Z,1014.26
2018-08-18T02:42:41.083Z,1014.20
2018-08-18T02:43:41.050Z,1014.18
2018-08-18T02:44:41.026Z,1014.27
2018-08-18T02:45:41.008Z,1014.30
2018-08-18T02:46:40.980Z,1014.30
2018-08-18T02:47:40.960Z,1014.30
2018-08-18T02:48:40.933Z,1014.31
2018-08-18T02:49:40.913Z,1014.27
2018-08-18T02:50:40.885Z,1014.28
2018-08-18T02:51:40.857Z,1014.26
2018-08-18T02:52:40.864Z,1014.29
2018-08-18T02:53:40.816Z,1014.26
2018-08-18T02:54:40.788Z,1014.29
2018-08-18T02:55:40.761Z,1014.24
2018-08-18T02:56:40.760Z,1014.26
2018-08-18T02:57:40.716Z,1014.31
2018-08-18T02:58:40.701Z,1014.30
2018-08-18T02:59:40.666Z,1014.27
2018-08-18T03:00:40.670Z,1014.28
2018-08-18T03:01:40.625Z,1014.25
2018-08-18T03:02:40.667Z,1014.30
2018-08-18T03:03:40.570Z,1014.27
2018-08-18T03:04:40.587Z,1014.33
2018-08-18T03:06:26.608Z,1014.36
2018-08-18T03:07:26.537Z,1014.31
2018-08-18T03:08:26.583Z,1014.36
2018-08-18T03:09:26.523Z,1014.37
2018-08-18T03:10:26.555Z,1014.41
2018-08-18T03:11:26.450Z,1014.41
2018-08-18T03:12:27.495Z,1014.42
2018-08-18T03:13:26.405Z,1014.41
2018-08-18T03:14:26.892Z,1014.41
2018-08-18T03:15:26.377Z,1014.44
2018-08-18T03:16:26.394Z,1014.45
2018-08-18T03:17:26.299Z,1014.44
2018-08-18T03:18:26.308Z,1014.47
2018-08-18T03:19:26.249Z,1014.45
2018-08-18T03:20:26.322Z,1014.47
2018-08-18T03:21:26.201Z,1014.45
2018-08-18T03:22:27.261Z,1014.45
2018-08-18T03:23:26.176Z,1014.44
2018-08-18T03:24:26.243Z,1014.50
2018-08-18T03:25:26.107Z,1014.48
2018-08-18T03:26:26.152Z,1014.45
2018-08-18T03:27:26.059Z,1014.49
2018-08-18T03:28:26.063Z,1014.44
2018-08-18T03:29:26.010Z,1014.45
2018-08-18T03:30:26.078Z,1014.46
2018-08-18T03:31:25.957Z,1014.47
2018-08-18T03:32:25.995Z,1014.42
2018-08-18T03:33:25.926Z,1014.46
2018-08-18T03:34:25.904Z,1014.45
2018-08-18T03:35:25.863Z,1014.46
2018-08-18T03:36:25.926Z,1014.43
2018-08-18T03:38:13.074Z,1014.45
2018-08-18T03:39:13.029Z,1014.46
2018-08-18T03:40:12.984Z,1014.41
2018-08-18T03:41:13.048Z,1014.43
2018-08-18T03:42:12.908Z,1014.46
2018-08-18T03:43:12.957Z,1014.47
2018-08-18T03:44:12.869Z,1014.47
2018-08-18T03:45:12.859Z,1014.48
2018-08-18T03:46:12.813Z,1014.44
2018-08-18T03:47:12.890Z,1014.45
2018-08-18T03:48:12.782Z,1014.47
2018-08-18T03:49:12.824Z,1014.49
2018-08-18T03:50:12.708Z,1014.52
2018-08-18T03:51:12.706Z,1014.54
2018-08-18T03:52:12.674Z,1014.55
2018-08-18T03:53:12.728Z,1014.54
2018-08-18T03:54:12.616Z,1014.54
2018-08-18T03:55:12.642Z,1014.52
2018-08-18T03:56:12.577Z,1014.55
2018-08-18T03:57:12.646Z,1014.57
2018-08-18T03:58:12.524Z,1014.55
2018-08-18T03:59:12.590Z,1014.58
2018-08-18T04:00:12.464Z,1014.55
2018-08-18T04:01:12.470Z,1014.55
2018-08-18T04:02:12.421Z,1014.54
2018-08-18T04:03:12.485Z,1014.57
2018-08-18T04:04:12.369Z,1014.53
2018-08-18T04:05:12.409Z,1014.56
2018-08-18T04:06:12.320Z,1014.61
2018-08-18T04:07:12.308Z,1014.62
2018-08-18T04:08:12.273Z,1014.60
2018-08-18T04:09:12.366Z,1014.60
2018-08-18T04:10:12.239Z,1014.61
2018-08-18T04:11:13.242Z,1014.61
2018-08-18T04:12:12.179Z,1014.61
2018-08-18T04:13:12.233Z,1014.59
2018-08-18T04:14:12.129Z,1014.65
2018-08-18T04:15:12.148Z,1014.65
2018-08-18T04:16:12.077Z,1014.68
2018-08-18T04:17:12.178Z,1014.65
2018-08-18T04:18:12.025Z,1014.62
2018-08-18T04:19:13.095Z,1014.66
2018-08-18T04:20:11.992Z,1014.63
2018-08-18T04:21:12.179Z,1014.62
2018-08-18T04:22:11.962Z,1014.62
2018-08-18T04:23:11.919Z,1014.57
2018-08-18T04:24:11.881Z,1014.61
2018-08-18T04:25:12.920Z,1014.63
2018-08-18T04:26:11.842Z,1014.63
2018-08-18T04:27:11.820Z,1014.68
2018-08-18T04:28:11.775Z,1014.68
2018-08-18T04:29:11.756Z,1014.67
2018-08-18T04:30:11.734Z,1014.67
2018-08-18T04:31:11.743Z,1014.74
2018-08-18T04:32:11.687Z,1014.73
2018-08-18T04:33:11.662Z,1014.72
2018-08-18T04:34:11.639Z,1014.75
2018-08-18T04:35:11.640Z,1014.76
2018-08-18T04:36:11.589Z,1014.77
2018-08-18T04:37:11.566Z,1014.79
2018-08-18T04:38:11.540Z,1014.76
2018-08-18T04:39:11.515Z,1014.76
2018-08-18T04:40:11.494Z,1014.75
2018-08-18T04:41:11.465Z,1014.77
2018-08-18T04:42:11.449Z,1014.79
2018-08-18T04:43:11.423Z,1014.76
2018-08-18T04:44:11.384Z,1014.80
2018-08-18T04:45:11.373Z,1014.80
2018-08-18T04:46:11.351Z,1014.76
2018-08-18T04:47:11.329Z,1014.77
2018-08-18T04:48:11.316Z,1014.76
2018-08-18T04:49:11.267Z,1014.78
2018-08-18T04:50:11.239Z,1014.80
2018-08-18T04:51:11.218Z,1014.80
2018-08-18T04:52:11.183Z,1014.79
2018-08-18T04:53:11.164Z,1014.79
2018-08-18T04:54:11.141Z,1014.78
2018-08-18T04:55:11.122Z,1014.76
2018-08-18T04:56:11.084Z,1014.74
2018-08-18T04:57:11.069Z,1014.73
2018-08-18T04:58:11.042Z,1014.72
2018-08-18T04:59:11.042Z,1014.75
2018-08-18T05:01:02.683Z,1014.78
2018-08-18T05:02:02.627Z,1014.76
2018-08-18T05:03:02.597Z,1014.80
2018-08-18T05:04:02.572Z,1014.78
2018-08-18T05:05:02.556Z,1014.82
2018-08-18T05:06:02.534Z,1014.78
2018-08-18T05:07:02.500Z,1014.81
2018-08-18T05:08:03.480Z,1014.83
2018-08-18T05:09:02.442Z,1014.84
2018-08-18T05:10:02.421Z,1014.81
2018-08-18T05:11:02.402Z,1014.83
2018-08-18T05:12:02.383Z,1014.85
2018-08-18T05:13:02.347Z,1014.81
2018-08-18T05:14:02.323Z,1014.83
2018-08-18T05:15:02.297Z,1014.83
2018-08-18T05:16:02.283Z,1014.82
2018-08-18T05:17:02.240Z,1014.82
2018-08-18T05:18:03.242Z,1014.83
2018-08-18T05:19:02.311Z,1014.81
2018-08-18T05:20:03.206Z,1014.83
2018-08-18T05:21:02.163Z,1014.84
2018-08-18T05:22:02.147Z,1014.85
2018-08-18T05:23:02.118Z,1014.86
2018-08-18T05:24:02.103Z,1014.81
2018-08-18T05:25:02.053Z,1014.83
2018-08-18T05:26:02.039Z,1014.78
2018-08-18T05:27:02.006Z,1014.82
2018-08-18T05:28:01.990Z,1014.83
2018-08-18T05:29:52.400Z,1014.81
2018-08-18T05:30:52.349Z,1014.80
2018-08-18T05:31:52.326Z,1014.82
2018-08-18T05:32:52.293Z,1014.81
2018-08-18T05:33:52.268Z,1014.84
2018-08-18T05:34:54.259Z,1014.81
2018-08-18T05:35:52.223Z,1014.82
2018-08-18T05:36:52.225Z,1014.82
2018-08-18T05:37:52.172Z,1014.81
2018-08-18T05:38:52.147Z,1014.84
2018-08-18T05:39:52.131Z,1014.87
2018-08-18T05:40:52.101Z,1014.84
2018-08-18T05:41:52.074Z,1014.87
2018-08-18T05:42:52.052Z,1014.85
2018-08-18T05:43:52.024Z,1014.90
2018-08-18T05:44:52.009Z,1014.91
2018-08-18T05:45:51.974Z,1014.95
2018-08-18T05:46:52.969Z,1014.97
2018-08-18T05:47:51.927Z,1014.93
2018-08-18T05:48:51.904Z,1014.93
2018-08-18T05:49:51.954Z,1014.97
2018-08-18T05:50:52.100Z,1015.00
2018-08-18T05:51:51.829Z,1015.02
2018-08-18T05:52:51.912Z,1015.00
2018-08-18T05:53:51.774Z,1014.98
2018-08-18T05:54:51.747Z,1015.01
2018-08-18T05:55:51.729Z,1014.98
2018-08-18T05:56:51.706Z,1015.01
2018-08-18T05:57:51.667Z,1014.98
2018-08-18T05:58:51.647Z,1014.97
2018-08-18T05:59:51.620Z,1014.96
2018-08-18T06:00:51.594Z,1014.98
2018-08-18T06:01:51.573Z,1014.98
2018-08-18T06:02:51.564Z,1015.00
2018-08-18T06:03:51.524Z,1014.96
2018-08-18T06:04:52.525Z,1015.00
2018-08-18T06:05:51.500Z,1015.00
2018-08-18T06:06:51.464Z,1015.00
2018-08-18T06:07:51.445Z,1015.04
2018-08-18T06:08:52.402Z,1015.06
2018-08-18T06:09:51.373Z,1015.04
2018-08-18T06:10:51.344Z,1015.10
2018-08-18T06:11:51.350Z,1015.04
2018-08-18T06:12:51.304Z,1015.10
2018-08-18T06:13:51.268Z,1015.12
2018-08-18T06:14:51.255Z,1015.11
2018-08-18T06:15:51.222Z,1015.13
2018-08-18T06:16:52.787Z,1015.17
2018-08-18T06:17:51.183Z,1015.15
2018-08-18T06:18:51.153Z,1015.19
2018-08-18T06:19:51.130Z,1015.21
2018-08-18T06:20:51.099Z,1015.23
2018-08-18T06:22:37.092Z,1015.24
2018-08-18T06:23:36.972Z,1015.25
2018-08-18T06:24:36.968Z,1015.24
2018-08-18T06:25:36.931Z,1015.24
2018-08-18T06:26:36.904Z,1015.28
2018-08-18T06:27:36.894Z,1015.23
2018-08-18T06:28:36.846Z,1015.24
2018-08-18T06:29:36.885Z,1015.24
2018-08-18T06:30:36.803Z,1015.27
2018-08-18T06:31:36.784Z,1015.26
2018-08-18T06:32:36.750Z,1015.27
2018-08-18T06:33:36.733Z,1015.30
2018-08-18T06:34:36.772Z,1015.29
2018-08-18T06:35:36.683Z,1015.29
2018-08-18T06:36:36.648Z,1015.31
2018-08-18T06:37:36.636Z,1015.32
2018-08-18T06:38:36.620Z,1015.32
2018-08-18T06:39:36.582Z,1015.34
2018-08-18T06:40:36.571Z,1015.40
2018-08-18T06:41:36.642Z,1015.36
2018-08-18T06:42:36.505Z,1015.36
2018-08-18T06:43:36.477Z,1015.36
2018-08-18T06:44:36.455Z,1015.37
2018-08-18T06:45:36.434Z,1015.38
2018-08-18T06:46:36.401Z,1015.41
2018-08-18T06:47:36.384Z,1015.41
2018-08-18T06:48:36.373Z,1015.40
2018-08-18T06:49:36.369Z,1015.41
2018-08-18T06:50:36.341Z,1015.40
2018-08-18T06:51:36.343Z,1015.40
2018-08-18T06:52:36.284Z,1015.41
2018-08-18T06:53:36.235Z,1015.43
2018-08-18T06:54:36.224Z,1015.41
2018-08-18T06:55:36.187Z,1015.38
2018-08-18T06:56:36.169Z,1015.38
2018-08-18T06:57:36.150Z,1015.45
2018-08-18T06:58:36.105Z,1015.38
2018-08-18T06:59:36.093Z,1015.42
2018-08-18T07:00:36.069Z,1015.42
2018-08-18T07:01:36.056Z,1015.44
2018-08-18T07:02:36.014Z,1015.44
2018-08-18T07:03:35.994Z,1015.46
2018-08-18T07:04:35.976Z,1015.41
2018-08-18T07:05:35.941Z,1015.43
2018-08-18T07:06:35.927Z,1015.46
2018-08-18T07:07:35.904Z,1015.48
2018-08-18T07:08:35.862Z,1015.43
2018-08-18T07:09:35.843Z,1015.40
2018-08-18T07:10:35.821Z,1015.38
2018-08-18T07:11:35.792Z,1015.38
2018-08-18T07:12:35.761Z,1015.37
2018-08-18T07:13:35.744Z,1015.38
2018-08-18T07:14:35.716Z,1015.34
2018-08-18T07:15:35.701Z,1015.35
2018-08-18T07:16:35.666Z,1015.36
2018-08-18T07:17:35.660Z,1015.34
2018-08-18T07:18:35.632Z,1015.35
2018-08-18T07:19:36.605Z,1015.38
2018-08-18T07:20:35.571Z,1015.37
2018-08-18T07:21:35.598Z,1015.38
2018-08-18T07:22:35.522Z,1015.37
2018-08-18T07:23:35.500Z,1015.37
2018-08-18T07:24:35.492Z,1015.38
2018-08-18T07:25:35.447Z,1015.37
2018-08-18T07:26:35.418Z,1015.42
2018-08-18T07:27:35.401Z,1015.41
2018-08-18T07:28:35.528Z,1015.45
2018-08-18T07:29:35.422Z,1015.43
2018-08-18T07:30:35.337Z,1015.41
2018-08-18T07:31:35.309Z,1015.42
2018-08-18T07:32:35.272Z,1015.45
2018-08-18T07:33:35.269Z,1015.46
2018-08-18T07:34:35.225Z,1015.43
2018-08-18T07:35:35.220Z,1015.47
2018-08-18T07:36:35.184Z,1015.45
2018-08-18T07:37:36.227Z,1015.44
2018-08-18T07:38:35.126Z,1015.45
2018-08-18T07:39:35.116Z,1015.44
2018-08-18T07:40:35.075Z,1015.46
2018-08-18T07:41:35.068Z,1015.44
2018-08-18T07:42:35.026Z,1015.45
2018-08-18T07:43:37.014Z,1015.46
2018-08-18T07:44:34.996Z,1015.46
2018-08-18T07:45:34.953Z,1015.50
2018-08-18T07:46:34.931Z,1015.51
2018-08-18T07:47:34.916Z,1015.54
2018-08-18T07:48:34.893Z,1015.52
2018-08-18T07:50:22.229Z,1015.58
2018-08-18T07:51:22.174Z,1015.58
2018-08-18T07:52:22.149Z,1015.55
2018-08-18T07:53:22.633Z,1015.57
2018-08-18T07:54:22.155Z,1015.55
2018-08-18T07:55:22.085Z,1015.52
2018-08-18T07:56:22.498Z,1015.55
2018-08-18T07:57:22.040Z,1015.59
2018-08-18T07:58:22.005Z,1015.57
2018-08-18T07:59:21.980Z,1015.57
2018-08-18T08:00:21.985Z,1015.57
2018-08-18T08:01:21.932Z,1015.59
2018-08-18T08:02:22.901Z,1015.56
2018-08-18T08:03:21.889Z,1015.55
2018-08-18T08:04:22.852Z,1015.58
2018-08-18T08:05:21.830Z,1015.59
2018-08-18T08:06:21.815Z,1015.59
2018-08-18T08:07:21.784Z,1015.61
2018-08-18T08:08:21.791Z,1015.56
2018-08-18T08:09:21.728Z,1015.57
2018-08-18T08:10:21.704Z,1015.53
2018-08-18T08:11:21.679Z,1015.55
2018-08-18T08:12:21.673Z,1015.58
2018-08-18T08:13:21.622Z,1015.51
2018-08-18T08:14:21.613Z,1015.50
2018-08-18T08:15:21.577Z,1015.51
2018-08-18T08:16:21.561Z,1015.53
2018-08-18T08:17:21.526Z,1015.49
2018-08-18T08:18:21.613Z,1015.55
2018-08-18T08:19:21.501Z,1015.55
2018-08-18T08:20:21.471Z,1015.55
2018-08-18T08:21:21.435Z,1015.50
2018-08-18T08:22:21.423Z,1015.54
2018-08-18T08:23:21.388Z,1015.57
2018-08-18T08:24:21.373Z,1015.58
2018-08-18T08:25:21.337Z,1015.56
2018-08-18T08:26:21.317Z,1015.55
2018-08-18T08:27:21.291Z,1015.57
2018-08-18T08:28:21.266Z,1015.55
2018-08-18T08:29:21.244Z,1015.58
2018-08-18T08:30:21.213Z,1015.54
2018-08-18T08:31:21.188Z,1015.58
2018-08-18T08:32:21.166Z,1015.56
2018-08-18T08:33:21.132Z,1015.54
2018-08-18T08:34:21.128Z,1015.56
2018-08-18T08:35:21.088Z,1015.56
2018-08-18T08:36:21.068Z,1015.57
2018-08-18T08:37:21.039Z,1015.57
2018-08-18T08:38:21.021Z,1015.64
2018-08-18T08:39:20.996Z,1015.59
2018-08-18T08:40:20.968Z,1015.58
2018-08-18T08:41:20.932Z,1015.55
2018-08-18T08:42:20.943Z,1015.56
2018-08-18T08:43:20.963Z,1015.60
2018-08-18T08:44:20.868Z,1015.59
2018-08-18T08:45:20.837Z,1015.60
2018-08-18T08:46:20.839Z,1015.58
2018-08-18T08:47:20.801Z,1015.59
2018-08-18T08:48:20.789Z,1015.55
2018-08-18T08:49:20.743Z,1015.58
2018-08-18T08:50:20.724Z,1015.59
2018-08-18T08:51:20.694Z,1015.56
2018-08-18T08:52:20.674Z,1015.55
2018-08-18T08:53:20.673Z,1015.55
2018-08-18T08:54:07.282Z,1015.54
2018-08-18T08:55:07.220Z,1015.54
2018-08-18T08:56:07.221Z,1015.52
2018-08-18T08:57:07.161Z,1015.48
2018-08-18T08:58:07.141Z,1015.49
2018-08-18T08:59:07.116Z,1015.52
2018-08-18T09:00:07.081Z,1015.49
2018-08-18T09:01:07.120Z,1015.51
2018-08-18T09:02:07.042Z,1015.50
2018-08-18T09:03:07.027Z,1015.55
2018-08-18T09:04:06.993Z,1015.55
2018-08-18T09:05:06.966Z,1015.54
2018-08-18T09:06:06.941Z,1015.53
2018-08-18T09:07:06.919Z,1015.52
2018-08-18T09:08:06.908Z,1015.56
2018-08-18T09:09:06.870Z,1015.59
2018-08-18T09:10:06.864Z,1015.54
2018-08-18T09:11:06.860Z,1015.51
2018-08-18T09:12:06.786Z,1015.57
2018-08-18T09:13:06.774Z,1015.57
2018-08-18T09:14:06.747Z,1015.62
2018-08-18T09:15:06.732Z,1015.59
2018-08-18T09:16:06.712Z,1015.52
2018-08-18T09:17:06.673Z,1015.57
2018-08-18T09:18:06.646Z,1015.57
2018-08-18T09:19:06.620Z,1015.60
2018-08-18T09:20:06.590Z,1015.57
2018-08-18T09:21:06.573Z,1015.53
2018-08-18T09:22:06.538Z,1015.52
2018-08-18T09:23:06.550Z,1015.50
2018-08-18T09:24:06.521Z,1015.48
2018-08-18T09:25:07.485Z,1015.47
2018-08-18T09:26:06.451Z,1015.51
2018-08-18T09:27:06.426Z,1015.50
2018-08-18T09:28:06.397Z,1015.51
2018-08-18T09:29:06.389Z,1015.51
2018-08-18T09:30:06.345Z,1015.49
2018-08-18T09:31:06.338Z,1015.45
2018-08-18T09:32:06.298Z,1015.50
2018-08-18T09:33:06.281Z,1015.49
2018-08-18T09:34:06.245Z,1015.51
2018-08-18T09:35:06.232Z,1015.47
2018-08-18T09:36:06.202Z,1015.45
2018-08-18T09:37:06.190Z,1015.47
2018-08-18T09:38:06.160Z,1015.42
2018-08-18T09:39:07.140Z,1015.44
2018-08-18T09:40:52.059Z,1015.41
2018-08-18T09:41:52.028Z,1015.42
2018-08-18T09:42:52.000Z,1015.38
2018-08-18T09:43:52.964Z,1015.42
2018-08-18T09:44:51.937Z,1015.39
2018-08-18T09:45:51.915Z,1015.42
2018-08-18T09:46:51.888Z,1015.40
2018-08-18T09:47:51.860Z,1015.41
2018-08-18T09:48:51.841Z,1015.39
2018-08-18T09:49:51.829Z,1015.38
2018-08-18T09:50:51.783Z,1015.42
2018-08-18T09:51:51.796Z,1015.40
2018-08-18T09:52:51.746Z,1015.41
2018-08-18T09:53:51.719Z,1015.44
2018-08-18T09:54:51.770Z,1015.50
2018-08-18T09:55:52.672Z,1015.48
2018-08-18T09:56:51.646Z,1015.46
2018-08-18T09:57:51.621Z,1015.45
2018-08-18T09:58:51.594Z,1015.42
2018-08-18T09:59:51.585Z,1015.47
2018-08-18T10:00:51.538Z,1015.40
2018-08-18T10:01:51.522Z,1015.42
2018-08-18T10:02:51.503Z,1015.42
2018-08-18T10:03:52.484Z,1015.44
2018-08-18T10:04:51.452Z,1015.51
2018-08-18T10:05:52.465Z,1015.46
2018-08-18T10:06:51.406Z,1015.47
2018-08-18T10:07:52.386Z,1015.46
2018-08-18T10:08:51.558Z,1015.40
2018-08-18T10:09:53.341Z,1015.42
2018-08-18T10:10:51.317Z,1015.39
2018-08-18T10:11:51.284Z,1015.38
2018-08-18T10:12:51.262Z,1015.35
2018-08-18T10:13:51.243Z,1015.41
2018-08-18T10:14:51.209Z,1015.40
2018-08-18T10:15:51.195Z,1015.38
2018-08-18T10:16:51.182Z,1015.40
2018-08-18T10:17:51.133Z,1015.36
2018-08-18T10:18:51.110Z,1015.39
2018-08-18T10:19:51.087Z,1015.37
2018-08-18T10:20:51.067Z,1015.40
2018-08-18T10:21:51.053Z,1015.37
2018-08-18T10:22:51.018Z,1015.40
2018-08-18T10:23:51.032Z,1015.41
2018-08-18T10:24:50.985Z,1015.38
2018-08-18T10:25:50.952Z,1015.31
2018-08-18T10:26:50.973Z,1015.35
2018-08-18T10:27:50.900Z,1015.35
2018-08-18T10:28:50.864Z,1015.38
2018-08-18T10:29:50.872Z,1015.33
2018-08-18T10:30:50.826Z,1015.29
2018-08-18T10:32:37.281Z,1015.30
2018-08-18T10:33:37.261Z,1015.30
2018-08-18T10:34:37.214Z,1015.27
2018-08-18T10:35:37.182Z,1015.26
2018-08-18T10:36:37.155Z,1015.26
2018-08-18T10:37:37.141Z,1015.22
2018-08-18T10:38:37.108Z,1015.17
2018-08-18T10:39:37.090Z,1015.18
2018-08-18T10:40:37.069Z,1015.23
2018-08-18T10:41:37.033Z,1015.18
2018-08-18T10:42:37.033Z,1015.16
2018-08-18T10:43:37.009Z,1015.20
2018-08-18T10:44:37.172Z,1015.21
2018-08-18T10:45:36.939Z,1015.17
2018-08-18T10:46:36.943Z,1015.11
2018-08-18T10:47:36.901Z,1015.15
2018-08-18T10:48:36.868Z,1015.07
2018-08-18T10:49:36.859Z,1015.06
2018-08-18T10:50:36.834Z,1015.14
2018-08-18T10:51:22.594Z,1015.14
2018-08-18T10:52:22.538Z,1015.11
2018-08-18T10:53:22.525Z,1015.13
2018-08-18T10:54:22.496Z,1015.13
2018-08-18T10:55:22.481Z,1015.15
2018-08-18T10:56:22.472Z,1015.10
2018-08-18T10:57:22.435Z,1015.15
2018-08-18T10:58:22.410Z,1015.11
2018-08-18T10:59:22.377Z,1015.09
2018-08-18T11:00:22.370Z,1015.10
2018-08-18T11:01:22.328Z,1015.10
2018-08-18T11:02:22.306Z,1015.03
2018-08-18T11:03:22.320Z,1015.11
2018-08-18T11:04:22.262Z,1015.06
2018-08-18T11:05:22.235Z,1015.17
2018-08-18T11:06:22.211Z,1015.15
2018-08-18T11:07:22.202Z,1015.15
2018-08-18T11:08:22.180Z,1015.11
2018-08-18T11:09:22.139Z,1015.12
2018-08-18T11:10:22.112Z,1015.01
2018-08-18T11:11:22.101Z,1015.04
2018-08-18T11:12:22.061Z,1015.06
2018-08-18T11:13:22.058Z,1015.02
2018-08-18T11:14:22.026Z,1015.00
2018-08-18T11:15:22.009Z,1015.01
2018-08-18T11:16:21.972Z,1015.05
2018-08-18T11:17:21.959Z,1015.08
2018-08-18T11:18:21.928Z,1015.08
2018-08-18T11:19:21.915Z,1015.11
2018-08-18T11:20:21.881Z,1015.16
2018-08-18T11:21:21.860Z,1015.14
2018-08-18T11:22:21.845Z,1015.08
2018-08-18T11:23:21.824Z,1015.13
2018-08-18T11:24:21.798Z,1015.14
2018-08-18T11:25:08.200Z,1015.10
2018-08-18T11:26:08.130Z,1015.11
2018-08-18T11:27:08.112Z,1015.12
2018-08-18T11:28:08.102Z,1015.09
2018-08-18T11:29:08.063Z,1015.10
2018-08-18T11:30:08.038Z,1015.15
2018-08-18T11:31:08.010Z,1015.14
2018-08-18T11:32:07.990Z,1015.12
2018-08-18T11:33:07.976Z,1015.06
2018-08-18T11:34:12.918Z,1015.09
2018-08-18T11:35:07.945Z,1015.12
2018-08-18T11:36:08.903Z,1015.09
2018-08-18T11:37:07.879Z,1015.09
2018-08-18T11:38:07.849Z,1015.05
2018-08-18T11:39:07.830Z,1015.05
2018-08-18T11:40:07.836Z,1015.01
2018-08-18T11:41:07.790Z,1014.98
2018-08-18T11:42:07.766Z,1014.97
2018-08-18T11:43:07.737Z,1014.98
2018-08-18T11:44:07.717Z,1014.99
2018-08-18T11:45:07.699Z,1015.05
2018-08-18T11:46:07.668Z,1015.06
2018-08-18T11:47:07.681Z,1014.96
2018-08-18T11:48:07.642Z,1015.05
2018-08-18T11:49:07.605Z,1014.93
2018-08-18T11:50:07.593Z,1014.94
2018-08-18T11:51:07.568Z,1014.96
2018-08-18T11:52:07.566Z,1014.96
2018-08-18T11:53:07.590Z,1015.00
2018-08-18T11:54:07.512Z,1015.02
2018-08-18T11:55:07.664Z,1014.97
2018-08-18T11:56:07.479Z,1015.00
2018-08-18T11:57:07.480Z,1014.97
2018-08-18T11:58:07.398Z,1014.97
2018-08-18T11:59:07.367Z,1014.98
2018-08-18T12:00:53.698Z,1014.97
2018-08-18T12:01:53.692Z,1014.98
2018-08-18T12:02:53.612Z,1014.98
2018-08-18T12:03:53.576Z,1015.04
2018-08-18T12:04:53.572Z,1014.99
2018-08-18T12:05:53.534Z,1014.99
2018-08-18T12:06:54.512Z,1014.93
2018-08-18T12:07:53.482Z,1014.95
2018-08-18T12:08:53.467Z,1014.96
2018-08-18T12:09:53.440Z,1014.91
2018-08-18T12:10:53.723Z,1014.94
2018-08-18T12:11:53.510Z,1014.92
2018-08-18T12:12:53.503Z,1014.88